sensor_id;sensor_type;location;lat;lon;timestamp;temperature;humidity
64951;DHT22;51482;47.014;7.652;2023-05-10T00:00:00;13.40;99.90
64951;DHT22;51482;47.014;7.652;2023-05-10T00:02:25;13.70;99.90
64951;DHT22;51482;47.014;7.652;2023-05-10T00:04:51;13.30;99.90
64951;DHT22;51482;47.014;7.652;2023-05-10T00:07:17;13.30;99.90
64951;DHT22;51482;47.014;7.652;2023-05-10T00:09:43;13.70;99.90
64951;DHT22;51482;47.014;7.652;2023-05-10T00:12:09;13.20;99.90
64951;DHT22;51482;47.014;7.652;2023-05-10T00:14:34;13.20;99.90
64951;DHT22;51482;47.014;7.652;2023-05-10T00:17:00;13.10;99.90
64951;DHT22;51482;47.014;7.652;2023-05-10T00:19:26;13.10;99.90
64951;DHT22;51482;47.014;7.652;2023-05-10T00:21:51;13.10;99.90
64951;DHT22;51482;47.014;7.652;2023-05-10T00:24:17;13.10;99.90
64951;DHT22;51482;47.014;7.652;2023-05-10T00:26:42;13.20;99.90
64951;DHT22;51482;47.014;7.652;2023-05-10T00:29:08;13.20;99.90
64951;DHT22;51482;47.014;7.652;2023-05-10T00:31:33;13.20;99.90
64951;DHT22;51482;47.014;7.652;2023-05-10T00:33:59;13.20;99.90
64951;DHT22;51482;47.014;7.652;2023-05-10T00:36:24;13.60;99.90
64951;DHT22;51482;47.014;7.652;2023-05-10T00:38:50;13.20;99.90
64951;DHT22;51482;47.014;7.652;2023-05-10T00:41:16;13.10;99.90
64951;DHT22;51482;47.014;7.652;2023-05-10T00:43:41;13.10;99.90
64951;DHT22;51482;47.014;7.652;2023-05-10T00:46:07;13.10;99.90
64951;DHT22;51482;47.014;7.652;2023-05-10T00:48:33;13.10;99.90
64951;DHT22;51482;47.014;7.652;2023-05-10T00:51:01;12.80;99.90
64951;DHT22;51482;47.014;7.652;2023-05-10T00:53:27;13.20;99.90
64951;DHT22;51482;47.014;7.652;2023-05-10T00:55:52;13.20;99.90
64951;DHT22;51482;47.014;7.652;2023-05-10T00:58:18;13.10;99.90
64951;DHT22;51482;47.014;7.652;2023-05-10T01:00:46;13.10;99.90
64951;DHT22;51482;47.014;7.652;2023-05-10T01:03:12;13.10;99.90
64951;DHT22;51482;47.014;7.652;2023-05-10T01:05:38;13.10;99.90
64951;DHT22;51482;47.014;7.652;2023-05-10T01:08:04;13.10;99.90
64951;DHT22;51482;47.014;7.652;2023-05-10T01:10:30;13.10;99.90
64951;DHT22;51482;47.014;7.652;2023-05-10T01:12:56;13.10;99.90
64951;DHT22;51482;47.014;7.652;2023-05-10T01:15:22;13.00;99.90
64951;DHT22;51482;47.014;7.652;2023-05-10T01:17:48;13.10;99.90
64951;DHT22;51482;47.014;7.652;2023-05-10T01:20:14;13.10;99.90
64951;DHT22;51482;47.014;7.652;2023-05-10T01:31:30;13.10;99.90
64951;DHT22;51482;47.014;7.652;2023-05-10T01:34:15;13.10;99.90
64951;DHT22;51482;47.014;7.652;2023-05-10T01:37:09;12.60;99.90
64951;DHT22;51482;47.014;7.652;2023-05-10T01:39:49;13.10;99.90
64951;DHT22;51482;47.014;7.652;2023-05-10T01:42:21;13.20;99.90
64951;DHT22;51482;47.014;7.652;2023-05-10T01:47:44;13.10;99.90
64951;DHT22;51482;47.014;7.652;2023-05-10T01:50:21;13.00;99.90
64951;DHT22;51482;47.014;7.652;2023-05-10T01:52:51;13.00;99.90
64951;DHT22;51482;47.014;7.652;2023-05-10T01:55:21;13.00;99.90
64951;DHT22;51482;47.014;7.652;2023-05-10T01:57:52;13.60;99.90
64951;DHT22;51482;47.014;7.652;2023-05-10T02:00:19;13.00;99.90
64951;DHT22;51482;47.014;7.652;2023-05-10T02:02:47;13.00;99.90
64951;DHT22;51482;47.014;7.652;2023-05-10T02:05:14;13.00;99.90
64951;DHT22;51482;47.014;7.652;2023-05-10T02:07:41;13.20;99.90
64951;DHT22;51482;47.014;7.652;2023-05-10T02:10:08;12.90;99.90
64951;DHT22;51482;47.014;7.652;2023-05-10T02:12:41;12.90;99.90
64951;DHT22;51482;47.014;7.652;2023-05-10T02:15:08;13.30;99.90
64951;DHT22;51482;47.014;7.652;2023-05-10T02:17:35;12.90;99.90
64951;DHT22;51482;47.014;7.652;2023-05-10T02:20:04;13.40;99.90
64951;DHT22;51482;47.014;7.652;2023-05-10T02:22:30;12.90;99.90
64951;DHT22;51482;47.014;7.652;2023-05-10T02:24:58;12.90;99.90
64951;DHT22;51482;47.014;7.652;2023-05-10T02:27:25;12.90;99.90
64951;DHT22;51482;47.014;7.652;2023-05-10T02:29:53;12.90;99.90
64951;DHT22;51482;47.014;7.652;2023-05-10T02:32:21;12.90;99.90
64951;DHT22;51482;47.014;7.652;2023-05-10T02:34:48;12.90;99.90
64951;DHT22;51482;47.014;7.652;2023-05-10T02:37:18;13.40;99.90
64951;DHT22;51482;47.014;7.652;2023-05-10T02:39:47;13.00;99.90
64951;DHT22;51482;47.014;7.652;2023-05-10T02:42:23;13.60;99.90
64951;DHT22;51482;47.014;7.652;2023-05-10T02:44:54;13.00;99.90
64951;DHT22;51482;47.014;7.652;2023-05-10T02:47:19;13.00;99.90
64951;DHT22;51482;47.014;7.652;2023-05-10T02:49:45;13.00;99.90
64951;DHT22;51482;47.014;7.652;2023-05-10T02:52:14;13.00;99.90
64951;DHT22;51482;47.014;7.652;2023-05-10T02:54:50;13.40;99.90
64951;DHT22;51482;47.014;7.652;2023-05-10T02:57:17;13.00;99.90
64951;DHT22;51482;47.014;7.652;2023-05-10T02:59:45;13.50;99.90
64951;DHT22;51482;47.014;7.652;2023-05-10T03:02:12;13.10;99.90
64951;DHT22;51482;47.014;7.652;2023-05-10T03:04:38;13.50;99.90
64951;DHT22;51482;47.014;7.652;2023-05-10T03:07:04;13.70;99.90
64951;DHT22;51482;47.014;7.652;2023-05-10T03:09:29;13.00;99.90
64951;DHT22;51482;47.014;7.652;2023-05-10T03:18:09;12.80;99.90
64951;DHT22;51482;47.014;7.652;2023-05-10T03:20:51;12.70;99.90
64951;DHT22;51482;47.014;7.652;2023-05-10T03:23:53;12.70;99.90
64951;DHT22;51482;47.014;7.652;2023-05-10T03:26:27;12.60;99.90
64951;DHT22;51482;47.014;7.652;2023-05-10T03:28:54;12.60;99.90
64951;DHT22;51482;47.014;7.652;2023-05-10T03:31:20;12.60;99.90
64951;DHT22;51482;47.014;7.652;2023-05-10T03:33:50;12.60;99.90
64951;DHT22;51482;47.014;7.652;2023-05-10T03:36:16;12.60;99.90
64951;DHT22;51482;47.014;7.652;2023-05-10T03:38:42;13.10;99.90
64951;DHT22;51482;47.014;7.652;2023-05-10T03:41:08;12.50;99.90
64951;DHT22;51482;47.014;7.652;2023-05-10T03:43:33;12.50;99.90
64951;DHT22;51482;47.014;7.652;2023-05-10T03:46:02;13.30;99.90
64951;DHT22;51482;47.014;7.652;2023-05-10T03:48:28;12.50;99.90
64951;DHT22;51482;47.014;7.652;2023-05-10T03:50:53;12.80;99.90
64951;DHT22;51482;47.014;7.652;2023-05-10T03:53:19;11.80;99.90
64951;DHT22;51482;47.014;7.652;2023-05-10T03:55:44;12.30;99.90
64951;DHT22;51482;47.014;7.652;2023-05-10T03:58:13;12.30;99.90
64951;DHT22;51482;47.014;7.652;2023-05-10T04:00:38;12.30;99.90
64951;DHT22;51482;47.014;7.652;2023-05-10T04:03:09;12.30;99.90
64951;DHT22;51482;47.014;7.652;2023-05-10T04:05:35;12.30;99.90
64951;DHT22;51482;47.014;7.652;2023-05-10T04:08:01;12.20;99.90
64951;DHT22;51482;47.014;7.652;2023-05-10T04:10:27;12.50;99.90
64951;DHT22;51482;47.014;7.652;2023-05-10T04:12:52;12.20;99.90
64951;DHT22;51482;47.014;7.652;2023-05-10T04:15:18;12.70;99.90
64951;DHT22;51482;47.014;7.652;2023-05-10T04:17:43;12.00;99.90
64951;DHT22;51482;47.014;7.652;2023-05-10T04:20:10;12.50;99.90
64951;DHT22;51482;47.014;7.652;2023-05-10T04:22:35;12.10;99.90
64951;DHT22;51482;47.014;7.652;2023-05-10T04:25:01;11.80;99.90
64951;DHT22;51482;47.014;7.652;2023-05-10T04:27:26;12.40;99.90
64951;DHT22;51482;47.014;7.652;2023-05-10T04:29:52;12.10;99.90
64951;DHT22;51482;47.014;7.652;2023-05-10T04:32:18;12.10;99.90
64951;DHT22;51482;47.014;7.652;2023-05-10T04:34:44;12.10;99.90
64951;DHT22;51482;47.014;7.652;2023-05-10T04:37:09;12.20;99.90
64951;DHT22;51482;47.014;7.652;2023-05-10T04:39:35;12.50;99.90
64951;DHT22;51482;47.014;7.652;2023-05-10T04:42:02;12.10;99.90
64951;DHT22;51482;47.014;7.652;2023-05-10T04:44:28;12.10;99.90
64951;DHT22;51482;47.014;7.652;2023-05-10T04:46:54;12.00;99.90
64951;DHT22;51482;47.014;7.652;2023-05-10T04:49:20;12.10;99.90
64951;DHT22;51482;47.014;7.652;2023-05-10T04:51:45;11.90;99.90
64951;DHT22;51482;47.014;7.652;2023-05-10T04:54:11;11.90;99.90
64951;DHT22;51482;47.014;7.652;2023-05-10T04:56:37;12.30;99.90
64951;DHT22;51482;47.014;7.652;2023-05-10T04:59:02;12.00;99.90
64951;DHT22;51482;47.014;7.652;2023-05-10T05:01:28;12.00;99.90
64951;DHT22;51482;47.014;7.652;2023-05-10T05:03:53;12.00;99.90
64951;DHT22;51482;47.014;7.652;2023-05-10T05:06:19;12.00;99.90
64951;DHT22;51482;47.014;7.652;2023-05-10T05:08:46;12.70;99.90
64951;DHT22;51482;47.014;7.652;2023-05-10T05:11:12;12.40;99.90
64951;DHT22;51482;47.014;7.652;2023-05-10T05:13:37;12.50;99.90
64951;DHT22;51482;47.014;7.652;2023-05-10T05:16:04;12.50;99.90
64951;DHT22;51482;47.014;7.652;2023-05-10T05:18:29;12.00;99.90
64951;DHT22;51482;47.014;7.652;2023-05-10T05:20:55;12.50;99.90
64951;DHT22;51482;47.014;7.652;2023-05-10T05:23:20;12.00;99.90
64951;DHT22;51482;47.014;7.652;2023-05-10T05:25:51;12.10;99.90
64951;DHT22;51482;47.014;7.652;2023-05-10T05:28:16;12.00;99.90
64951;DHT22;51482;47.014;7.652;2023-05-10T05:30:42;12.60;99.90
64951;DHT22;51482;47.014;7.652;2023-05-10T05:33:07;12.00;99.90
64951;DHT22;51482;47.014;7.652;2023-05-10T05:35:33;12.00;99.90
64951;DHT22;51482;47.014;7.652;2023-05-10T05:37:59;11.90;99.90
64951;DHT22;51482;47.014;7.652;2023-05-10T05:40:24;12.00;99.90
64951;DHT22;51482;47.014;7.652;2023-05-10T05:42:50;11.90;99.90
64951;DHT22;51482;47.014;7.652;2023-05-10T05:45:15;11.90;99.90
64951;DHT22;51482;47.014;7.652;2023-05-10T05:47:41;12.70;99.90
64951;DHT22;51482;47.014;7.652;2023-05-10T05:50:06;11.20;99.90
64951;DHT22;51482;47.014;7.652;2023-05-10T05:52:32;11.90;99.90
64951;DHT22;51482;47.014;7.652;2023-05-10T05:54:58;12.20;99.90
64951;DHT22;51482;47.014;7.652;2023-05-10T05:57:23;11.50;99.90
64951;DHT22;51482;47.014;7.652;2023-05-10T05:59:49;11.80;99.90
64951;DHT22;51482;47.014;7.652;2023-05-10T06:02:15;11.80;99.90
64951;DHT22;51482;47.014;7.652;2023-05-10T06:04:40;12.30;99.90
64951;DHT22;51482;47.014;7.652;2023-05-10T06:07:06;11.90;99.90
64951;DHT22;51482;47.014;7.652;2023-05-10T06:09:31;11.90;99.90
64951;DHT22;51482;47.014;7.652;2023-05-10T06:11:57;11.80;99.90
64951;DHT22;51482;47.014;7.652;2023-05-10T06:14:22;11.70;99.90
64951;DHT22;51482;47.014;7.652;2023-05-10T06:16:48;11.50;99.90
64951;DHT22;51482;47.014;7.652;2023-05-10T06:19:13;11.30;99.90
64951;DHT22;51482;47.014;7.652;2023-05-10T06:21:39;11.50;99.90
64951;DHT22;51482;47.014;7.652;2023-05-10T06:24:05;11.50;99.90
64951;DHT22;51482;47.014;7.652;2023-05-10T06:26:32;10.90;99.90
64951;DHT22;51482;47.014;7.652;2023-05-10T06:28:58;11.80;99.90
64951;DHT22;51482;47.014;7.652;2023-05-10T06:31:23;10.90;99.90
64951;DHT22;51482;47.014;7.652;2023-05-10T06:33:49;12.10;99.90
64951;DHT22;51482;47.014;7.652;2023-05-10T06:36:14;11.50;99.90
64951;DHT22;51482;47.014;7.652;2023-05-10T06:38:40;10.90;99.90
64951;DHT22;51482;47.014;7.652;2023-05-10T06:41:05;12.00;99.90
64951;DHT22;51482;47.014;7.652;2023-05-10T06:43:31;12.10;99.90
64951;DHT22;51482;47.014;7.652;2023-05-10T06:45:57;12.10;99.90
64951;DHT22;51482;47.014;7.652;2023-05-10T06:48:22;11.60;99.90
64951;DHT22;51482;47.014;7.652;2023-05-10T06:50:48;11.10;99.90
64951;DHT22;51482;47.014;7.652;2023-05-10T06:53:13;11.80;99.90
64951;DHT22;51482;47.014;7.652;2023-05-10T06:55:39;11.80;99.90
64951;DHT22;51482;47.014;7.652;2023-05-10T06:58:05;11.80;99.90
64951;DHT22;51482;47.014;7.652;2023-05-10T07:00:31;11.90;99.90
64951;DHT22;51482;47.014;7.652;2023-05-10T07:02:57;11.50;99.90
64951;DHT22;51482;47.014;7.652;2023-05-10T07:05:22;11.20;99.90
64951;DHT22;51482;47.014;7.652;2023-05-10T07:07:48;11.80;99.90
64951;DHT22;51482;47.014;7.652;2023-05-10T07:10:14;11.80;99.90
64951;DHT22;51482;47.014;7.652;2023-05-10T07:12:39;11.90;99.90
64951;DHT22;51482;47.014;7.652;2023-05-10T07:15:05;11.90;99.90
64951;DHT22;51482;47.014;7.652;2023-05-10T07:17:31;11.80;99.90
64951;DHT22;51482;47.014;7.652;2023-05-10T07:19:58;11.90;99.90
64951;DHT22;51482;47.014;7.652;2023-05-10T07:22:24;11.50;99.90
64951;DHT22;51482;47.014;7.652;2023-05-10T07:24:50;12.50;99.90
64951;DHT22;51482;47.014;7.652;2023-05-10T07:27:15;11.40;99.90
64951;DHT22;51482;47.014;7.652;2023-05-10T07:29:41;11.70;99.90
64951;DHT22;51482;47.014;7.652;2023-05-10T07:32:06;12.40;99.90
64951;DHT22;51482;47.014;7.652;2023-05-10T07:34:32;12.30;99.90
64951;DHT22;51482;47.014;7.652;2023-05-10T07:36:58;12.30;99.90
64951;DHT22;51482;47.014;7.652;2023-05-10T07:39:24;12.30;99.90
64951;DHT22;51482;47.014;7.652;2023-05-10T07:41:50;12.80;99.90
64951;DHT22;51482;47.014;7.652;2023-05-10T07:44:16;12.90;99.90
64951;DHT22;51482;47.014;7.652;2023-05-10T07:46:44;13.00;99.90
64951;DHT22;51482;47.014;7.652;2023-05-10T07:49:09;13.00;99.90
64951;DHT22;51482;47.014;7.652;2023-05-10T07:51:35;12.50;99.90
64951;DHT22;51482;47.014;7.652;2023-05-10T07:54:00;12.60;99.90
64951;DHT22;51482;47.014;7.652;2023-05-10T07:56:29;13.00;99.90
64951;DHT22;51482;47.014;7.652;2023-05-10T07:58:59;12.90;99.90
64951;DHT22;51482;47.014;7.652;2023-05-10T08:01:25;13.10;99.90
64951;DHT22;51482;47.014;7.652;2023-05-10T08:03:52;12.50;99.90
64951;DHT22;51482;47.014;7.652;2023-05-10T08:06:19;12.30;99.90
64951;DHT22;51482;47.014;7.652;2023-05-10T08:08:46;12.00;99.90
64951;DHT22;51482;47.014;7.652;2023-05-10T08:11:15;12.60;99.90
64951;DHT22;51482;47.014;7.652;2023-05-10T08:13:40;12.40;99.90
64951;DHT22;51482;47.014;7.652;2023-05-10T08:16:06;13.20;99.90
64951;DHT22;51482;47.014;7.652;2023-05-10T08:18:39;13.40;99.90
64951;DHT22;51482;47.014;7.652;2023-05-10T08:21:05;13.30;99.90
64951;DHT22;51482;47.014;7.652;2023-05-10T08:23:31;13.10;99.90
64951;DHT22;51482;47.014;7.652;2023-05-10T08:25:57;12.90;99.90
64951;DHT22;51482;47.014;7.652;2023-05-10T08:28:22;13.10;99.90
64951;DHT22;51482;47.014;7.652;2023-05-10T08:30:49;12.80;99.90
64951;DHT22;51482;47.014;7.652;2023-05-10T08:33:15;12.80;99.90
64951;DHT22;51482;47.014;7.652;2023-05-10T08:35:41;12.70;99.90
64951;DHT22;51482;47.014;7.652;2023-05-10T08:38:07;13.10;99.90
64951;DHT22;51482;47.014;7.652;2023-05-10T08:40:32;12.30;99.90
64951;DHT22;51482;47.014;7.652;2023-05-10T08:43:10;12.30;99.90
64951;DHT22;51482;47.014;7.652;2023-05-10T08:45:39;12.40;99.90
64951;DHT22;51482;47.014;7.652;2023-05-10T08:48:06;12.40;99.90
64951;DHT22;51482;47.014;7.652;2023-05-10T08:50:32;12.50;99.90
64951;DHT22;51482;47.014;7.652;2023-05-10T08:53:00;13.00;99.90
64951;DHT22;51482;47.014;7.652;2023-05-10T08:55:27;13.10;99.90
64951;DHT22;51482;47.014;7.652;2023-05-10T08:57:53;13.10;99.90
64951;DHT22;51482;47.014;7.652;2023-05-10T09:00:19;12.60;99.90
64951;DHT22;51482;47.014;7.652;2023-05-10T09:02:45;12.50;99.90
64951;DHT22;51482;47.014;7.652;2023-05-10T09:05:14;12.80;99.90
64951;DHT22;51482;47.014;7.652;2023-05-10T09:07:41;13.30;99.90
64951;DHT22;51482;47.014;7.652;2023-05-10T09:10:08;13.60;99.90
64951;DHT22;51482;47.014;7.652;2023-05-10T09:12:34;13.80;99.90
64951;DHT22;51482;47.014;7.652;2023-05-10T09:15:00;14.10;99.90
64951;DHT22;51482;47.014;7.652;2023-05-10T09:17:25;14.30;99.90
64951;DHT22;51482;47.014;7.652;2023-05-10T09:20:03;14.60;99.90
64951;DHT22;51482;47.014;7.652;2023-05-10T09:22:30;14.90;99.90
64951;DHT22;51482;47.014;7.652;2023-05-10T09:25:11;15.20;99.90
64951;DHT22;51482;47.014;7.652;2023-05-10T09:27:38;15.70;99.90
64951;DHT22;51482;47.014;7.652;2023-05-10T09:30:05;15.90;99.90
64951;DHT22;51482;47.014;7.652;2023-05-10T09:32:39;15.90;99.90
64951;DHT22;51482;47.014;7.652;2023-05-10T09:37:45;16.30;99.90
64951;DHT22;51482;47.014;7.652;2023-05-10T09:40:13;15.50;99.90
64951;DHT22;51482;47.014;7.652;2023-05-10T09:42:41;15.40;99.90
64951;DHT22;51482;47.014;7.652;2023-05-10T09:45:08;15.60;99.90
64951;DHT22;51482;47.014;7.652;2023-05-10T09:47:36;14.90;99.90
64951;DHT22;51482;47.014;7.652;2023-05-10T09:50:03;15.00;99.90
64951;DHT22;51482;47.014;7.652;2023-05-10T09:52:30;15.10;99.90
64951;DHT22;51482;47.014;7.652;2023-05-10T09:54:56;15.40;99.90
64951;DHT22;51482;47.014;7.652;2023-05-10T09:57:23;16.00;99.90
64951;DHT22;51482;47.014;7.652;2023-05-10T09:59:49;16.00;99.90
64951;DHT22;51482;47.014;7.652;2023-05-10T10:02:16;15.80;99.90
64951;DHT22;51482;47.014;7.652;2023-05-10T10:04:42;15.80;99.90
64951;DHT22;51482;47.014;7.652;2023-05-10T10:07:08;16.20;99.90
64951;DHT22;51482;47.014;7.652;2023-05-10T10:09:34;16.00;99.90
64951;DHT22;51482;47.014;7.652;2023-05-10T10:12:01;15.70;99.90
64951;DHT22;51482;47.014;7.652;2023-05-10T10:14:27;15.40;99.90
64951;DHT22;51482;47.014;7.652;2023-05-10T10:16:53;16.20;99.90
64951;DHT22;51482;47.014;7.652;2023-05-10T10:19:19;15.80;99.90
64951;DHT22;51482;47.014;7.652;2023-05-10T10:21:46;15.40;99.90
64951;DHT22;51482;47.014;7.652;2023-05-10T10:24:12;15.00;99.90
64951;DHT22;51482;47.014;7.652;2023-05-10T10:26:37;15.00;99.90
64951;DHT22;51482;47.014;7.652;2023-05-10T10:29:29;14.90;99.90
64951;DHT22;51482;47.014;7.652;2023-05-10T10:32:12;14.70;99.90
64951;DHT22;51482;47.014;7.652;2023-05-10T10:34:43;14.60;99.90
64951;DHT22;51482;47.014;7.652;2023-05-10T10:37:09;14.50;99.90
64951;DHT22;51482;47.014;7.652;2023-05-10T10:39:35;14.00;99.90
64951;DHT22;51482;47.014;7.652;2023-05-10T10:42:04;14.20;99.90
64951;DHT22;51482;47.014;7.652;2023-05-10T10:49:25;14.00;99.90
64951;DHT22;51482;47.014;7.652;2023-05-10T10:52:31;14.00;99.90
64951;DHT22;51482;47.014;7.652;2023-05-10T10:57:26;13.80;99.90
64951;DHT22;51482;47.014;7.652;2023-05-10T11:00:03;13.90;99.90
64951;DHT22;51482;47.014;7.652;2023-05-10T11:05:33;15.40;99.90
64951;DHT22;51482;47.014;7.652;2023-05-10T11:08:20;16.00;99.90
64951;DHT22;51482;47.014;7.652;2023-05-10T11:13:34;15.90;99.90
64951;DHT22;51482;47.014;7.652;2023-05-10T11:18:36;15.60;99.90
64951;DHT22;51482;47.014;7.652;2023-05-10T11:21:02;15.40;99.90
64951;DHT22;51482;47.014;7.652;2023-05-10T11:26:13;15.30;99.90
64951;DHT22;51482;47.014;7.652;2023-05-10T11:28:48;15.20;99.90
64951;DHT22;51482;47.014;7.652;2023-05-10T11:31:15;15.20;99.90
64951;DHT22;51482;47.014;7.652;2023-05-10T11:33:52;15.10;99.90
64951;DHT22;51482;47.014;7.652;2023-05-10T11:36:20;15.10;99.90
64951;DHT22;51482;47.014;7.652;2023-05-10T11:38:46;15.00;99.90
64951;DHT22;51482;47.014;7.652;2023-05-10T11:41:13;14.70;99.90
64951;DHT22;51482;47.014;7.652;2023-05-10T11:43:42;14.70;99.90
64951;DHT22;51482;47.014;7.652;2023-05-10T11:46:10;14.90;99.90
64951;DHT22;51482;47.014;7.652;2023-05-10T11:48:38;15.20;99.90
64951;DHT22;51482;47.014;7.652;2023-05-10T11:51:04;15.80;99.90
64951;DHT22;51482;47.014;7.652;2023-05-10T11:53:31;15.70;99.90
64951;DHT22;51482;47.014;7.652;2023-05-10T11:56:07;15.70;99.90
64951;DHT22;51482;47.014;7.652;2023-05-10T11:58:34;15.70;99.90
64951;DHT22;51482;47.014;7.652;2023-05-10T12:01:00;15.80;99.90
64951;DHT22;51482;47.014;7.652;2023-05-10T12:03:27;15.90;99.90
64951;DHT22;51482;47.014;7.652;2023-05-10T12:05:54;16.20;99.90
64951;DHT22;51482;47.014;7.652;2023-05-10T12:08:21;16.50;99.90
64951;DHT22;51482;47.014;7.652;2023-05-10T12:10:47;16.50;99.90
64951;DHT22;51482;47.014;7.652;2023-05-10T12:13:14;16.80;99.90
64951;DHT22;51482;47.014;7.652;2023-05-10T12:15:41;17.40;99.90
64951;DHT22;51482;47.014;7.652;2023-05-10T12:18:14;18.00;99.90
64951;DHT22;51482;47.014;7.652;2023-05-10T12:20:40;17.60;99.90
64951;DHT22;51482;47.014;7.652;2023-05-10T12:23:08;17.80;99.90
64951;DHT22;51482;47.014;7.652;2023-05-10T12:25:36;17.60;99.90
64951;DHT22;51482;47.014;7.652;2023-05-10T12:28:09;17.50;99.90
64951;DHT22;51482;47.014;7.652;2023-05-10T12:30:36;17.40;99.90
64951;DHT22;51482;47.014;7.652;2023-05-10T12:33:10;17.40;99.90
64951;DHT22;51482;47.014;7.652;2023-05-10T12:35:50;17.60;99.90
64951;DHT22;51482;47.014;7.652;2023-05-10T12:41:09;18.00;99.90
64951;DHT22;51482;47.014;7.652;2023-05-10T12:43:36;18.00;99.90
64951;DHT22;51482;47.014;7.652;2023-05-10T12:46:13;17.90;99.90
64951;DHT22;51482;47.014;7.652;2023-05-10T12:48:40;18.30;99.90
64951;DHT22;51482;47.014;7.652;2023-05-10T12:51:06;18.80;99.90
64951;DHT22;51482;47.014;7.652;2023-05-10T12:53:41;19.60;99.90
64951;DHT22;51482;47.014;7.652;2023-05-10T12:56:06;19.90;99.90
64951;DHT22;51482;47.014;7.652;2023-05-10T12:58:32;19.60;99.90
64951;DHT22;51482;47.014;7.652;2023-05-10T13:00:58;20.20;99.90
64951;DHT22;51482;47.014;7.652;2023-05-10T13:03:24;20.90;99.90
64951;DHT22;51482;47.014;7.652;2023-05-10T13:05:50;21.10;99.90
64951;DHT22;51482;47.014;7.652;2023-05-10T13:08:15;21.50;99.90
64951;DHT22;51482;47.014;7.652;2023-05-10T13:10:41;21.70;99.90
64951;DHT22;51482;47.014;7.652;2023-05-10T13:13:06;22.00;99.20
64951;DHT22;51482;47.014;7.652;2023-05-10T13:15:33;22.90;98.70
64951;DHT22;51482;47.014;7.652;2023-05-10T13:17:59;21.40;96.60
64951;DHT22;51482;47.014;7.652;2023-05-10T13:20:25;20.90;97.70
64951;DHT22;51482;47.014;7.652;2023-05-10T13:22:50;20.80;99.70
64951;DHT22;51482;47.014;7.652;2023-05-10T13:25:16;20.70;98.10
64951;DHT22;51482;47.014;7.652;2023-05-10T13:27:42;19.50;97.10
64951;DHT22;51482;47.014;7.652;2023-05-10T13:30:08;20.10;99.90
64951;DHT22;51482;47.014;7.652;2023-05-10T13:32:34;19.30;99.30
64951;DHT22;51482;47.014;7.652;2023-05-10T13:35:01;19.10;99.90
64951;DHT22;51482;47.014;7.652;2023-05-10T13:37:28;18.60;99.90
64951;DHT22;51482;47.014;7.652;2023-05-10T13:39:54;18.30;99.90
64951;DHT22;51482;47.014;7.652;2023-05-10T13:42:22;18.10;99.90
64951;DHT22;51482;47.014;7.652;2023-05-10T13:44:48;17.20;99.90
64951;DHT22;51482;47.014;7.652;2023-05-10T13:47:13;16.50;99.90
64951;DHT22;51482;47.014;7.652;2023-05-10T13:49:39;16.20;99.90
64951;DHT22;51482;47.014;7.652;2023-05-10T13:52:04;15.60;99.90
64951;DHT22;51482;47.014;7.652;2023-05-10T13:54:33;15.50;99.90
64951;DHT22;51482;47.014;7.652;2023-05-10T13:56:59;15.40;99.90
64951;DHT22;51482;47.014;7.652;2023-05-10T13:59:25;15.60;99.90
64951;DHT22;51482;47.014;7.652;2023-05-10T14:01:50;15.20;99.90
64951;DHT22;51482;47.014;7.652;2023-05-10T14:04:16;15.10;99.90
64951;DHT22;51482;47.014;7.652;2023-05-10T14:06:42;15.80;99.90
64951;DHT22;51482;47.014;7.652;2023-05-10T14:09:07;15.30;99.90
64951;DHT22;51482;47.014;7.652;2023-05-10T14:11:33;15.40;99.90
64951;DHT22;51482;47.014;7.652;2023-05-10T14:13:58;15.40;99.90
64951;DHT22;51482;47.014;7.652;2023-05-10T14:16:24;14.70;99.90
64951;DHT22;51482;47.014;7.652;2023-05-10T14:18:49;15.40;99.90
64951;DHT22;51482;47.014;7.652;2023-05-10T14:21:15;16.00;99.90
64951;DHT22;51482;47.014;7.652;2023-05-10T14:23:40;15.60;99.90
64951;DHT22;51482;47.014;7.652;2023-05-10T14:26:06;15.80;99.90
64951;DHT22;51482;47.014;7.652;2023-05-10T14:28:32;16.00;99.90
64951;DHT22;51482;47.014;7.652;2023-05-10T14:30:57;16.80;99.90
64951;DHT22;51482;47.014;7.652;2023-05-10T14:33:24;17.90;99.90
64951;DHT22;51482;47.014;7.652;2023-05-10T14:35:49;18.60;99.90
64951;DHT22;51482;47.014;7.652;2023-05-10T14:38:15;19.60;99.90
64951;DHT22;51482;47.014;7.652;2023-05-10T14:40:41;19.70;99.90
64951;DHT22;51482;47.014;7.652;2023-05-10T14:43:07;19.90;99.90
64951;DHT22;51482;47.014;7.652;2023-05-10T14:45:33;19.80;99.90
64951;DHT22;51482;47.014;7.652;2023-05-10T14:47:59;19.40;99.90
64951;DHT22;51482;47.014;7.652;2023-05-10T14:50:25;19.30;99.90
64951;DHT22;51482;47.014;7.652;2023-05-10T14:52:51;19.10;99.90
64951;DHT22;51482;47.014;7.652;2023-05-10T14:55:16;20.00;99.90
64951;DHT22;51482;47.014;7.652;2023-05-10T14:57:42;21.00;99.90
64951;DHT22;51482;47.014;7.652;2023-05-10T15:00:09;20.70;99.90
64951;DHT22;51482;47.014;7.652;2023-05-10T15:02:35;20.80;99.90
64951;DHT22;51482;47.014;7.652;2023-05-10T15:05:01;20.50;99.10
64951;DHT22;51482;47.014;7.652;2023-05-10T15:07:27;20.20;99.10
64951;DHT22;51482;47.014;7.652;2023-05-10T15:09:52;19.70;98.10
64951;DHT22;51482;47.014;7.652;2023-05-10T15:12:19;19.40;97.80
64951;DHT22;51482;47.014;7.652;2023-05-10T15:14:45;18.90;96.80
64951;DHT22;51482;47.014;7.652;2023-05-10T15:17:10;19.50;99.00
64951;DHT22;51482;47.014;7.652;2023-05-10T15:19:36;19.10;99.70
64951;DHT22;51482;47.014;7.652;2023-05-10T15:22:03;18.60;98.20
64951;DHT22;51482;47.014;7.652;2023-05-10T15:24:29;18.10;99.80
64951;DHT22;51482;47.014;7.652;2023-05-10T15:26:54;18.20;99.90
64951;DHT22;51482;47.014;7.652;2023-05-10T15:29:20;18.20;99.20
64951;DHT22;51482;47.014;7.652;2023-05-10T15:31:47;18.00;99.80
64951;DHT22;51482;47.014;7.652;2023-05-10T15:34:13;18.60;99.90
64951;DHT22;51482;47.014;7.652;2023-05-10T15:36:39;18.20;99.40
64951;DHT22;51482;47.014;7.652;2023-05-10T15:39:04;19.10;99.70
64951;DHT22;51482;47.014;7.652;2023-05-10T15:41:30;18.80;98.70
64951;DHT22;51482;47.014;7.652;2023-05-10T15:43:57;18.90;98.80
64951;DHT22;51482;47.014;7.652;2023-05-10T15:46:25;18.00;99.10
64951;DHT22;51482;47.014;7.652;2023-05-10T15:48:51;18.60;99.90
64951;DHT22;51482;47.014;7.652;2023-05-10T15:51:17;18.50;99.90
64951;DHT22;51482;47.014;7.652;2023-05-10T15:53:44;18.70;99.90
64951;DHT22;51482;47.014;7.652;2023-05-10T15:56:09;18.10;99.90
64951;DHT22;51482;47.014;7.652;2023-05-10T15:58:35;18.30;99.90
64951;DHT22;51482;47.014;7.652;2023-05-10T16:01:01;18.20;99.90
64951;DHT22;51482;47.014;7.652;2023-05-10T16:03:26;18.30;99.60
64951;DHT22;51482;47.014;7.652;2023-05-10T16:05:52;17.80;99.90
64951;DHT22;51482;47.014;7.652;2023-05-10T16:08:18;17.90;99.90
64951;DHT22;51482;47.014;7.652;2023-05-10T16:10:43;17.50;99.90